createdAt,value
2023-03-22T00:04:49.505Z,26.05
2023-03-22T00:09:51.924Z,28.30
2023-03-22T00:14:55.477Z,24.35
2023-03-22T00:19:58.673Z,25.77
2023-03-22T00:25:00.994Z,26.00
2023-03-22T00:30:05.815Z,24.33
2023-03-22T00:35:08.553Z,29.17
2023-03-22T00:40:14.877Z,22.33
2023-03-22T00:45:17.922Z,21.33
2023-03-22T00:50:20.831Z,19.17
2023-03-22T00:55:23.742Z,20.35
2023-03-22T01:00:25.920Z,23.02
2023-03-22T01:05:28.768Z,22.17
2023-03-22T01:10:31.611Z,20.65
2023-03-22T01:15:34.042Z,21.20
2023-03-22T01:20:36.554Z,15.70
2023-03-22T01:25:38.698Z,17.30
2023-03-22T01:30:41.466Z,18.42
2023-03-22T01:35:43.945Z,18.55
2023-03-22T01:40:46.113Z,20.13
2023-03-22T01:45:49.491Z,19.33
2023-03-22T01:51:03.520Z,18.92
2023-03-22T01:56:06.480Z,17.35
2023-03-22T02:01:11.556Z,16.20
2023-03-22T02:06:13.774Z,14.10
2023-03-22T02:11:25.789Z,14.88
2023-03-22T02:16:47.119Z,17.08
2023-03-22T02:22:17.056Z,17.25
2023-03-22T02:27:49.900Z,18.73
2023-03-22T02:33:07.459Z,14.23
2023-03-22T02:38:18.481Z,17.92
2023-03-22T02:43:21.079Z,14.90
2023-03-22T02:48:28.638Z,12.98
2023-03-22T02:53:48.028Z,17.17
2023-03-22T02:58:57.745Z,15.40
2023-03-22T03:04:05.140Z,17.55
2023-03-22T03:09:08.449Z,14.38
2023-03-22T03:14:21.152Z,14.10
2023-03-22T03:19:52.117Z,13.88
2023-03-22T03:25:25.267Z,14.13
2023-03-22T03:30:43.542Z,19.65
2023-03-22T03:35:59.008Z,14.68
2023-03-22T03:41:09.474Z,15.82
2023-03-22T03:46:12.367Z,14.73
2023-03-22T03:51:14.558Z,12.95
2023-03-22T03:56:16.681Z,15.73
2023-03-22T04:01:20.037Z,18.23
2023-03-22T04:06:22.235Z,13.02
2023-03-22T04:11:24.345Z,13.45
2023-03-22T04:16:26.624Z,14.52
2023-03-22T04:21:28.810Z,11.98
2023-03-22T04:26:32.516Z,17.65
2023-03-22T04:31:36.938Z,18.30
2023-03-22T04:36:42.216Z,12.93
2023-03-22T04:41:44.261Z,25.83
2023-03-22T04:46:46.530Z,22.83
2023-03-22T04:51:48.798Z,21.20
2023-03-22T04:56:51.329Z,22.08
2023-03-22T05:01:54.633Z,12.90
2023-03-22T05:06:56.793Z,9.57
2023-03-22T05:11:58.908Z,10.95
2023-03-22T05:17:01.199Z,10.90
2023-03-22T05:22:03.388Z,8.68
2023-03-22T05:27:06.197Z,9.05
2023-03-22T05:32:08.320Z,9.38
2023-03-22T05:37:10.636Z,9.38
2023-03-22T05:42:12.763Z,18.77
2023-03-22T05:47:14.950Z,10.75
2023-03-22T05:52:17.157Z,18.20
2023-03-22T05:57:19.346Z,21.00
2023-03-22T06:02:22.494Z,17.63
2023-03-22T06:07:25.737Z,25.48
2023-03-22T06:12:30.093Z,17.05
2023-03-22T06:17:32.781Z,15.93
2023-03-22T06:22:35.434Z,12.45
2023-03-22T06:27:38.360Z,11.43
2023-03-22T06:32:40.605Z,19.17
2023-03-22T06:37:42.866Z,9.48
2023-03-22T06:42:44.985Z,12.98
2023-03-22T06:47:47.100Z,14.82
2023-03-22T06:52:49.367Z,10.65
2023-03-22T06:57:51.536Z,16.48
2023-03-22T07:02:53.697Z,8.38
2023-03-22T07:07:55.965Z,10.50
2023-03-22T07:12:58.628Z,12.02
2023-03-22T07:18:02.046Z,11.05
2023-03-22T07:23:04.588Z,13.30
2023-03-22T07:28:07.382Z,9.70
2023-03-22T07:33:10.893Z,12.07
2023-03-22T07:38:13.575Z,12.80
2023-03-22T07:43:16.186Z,16.48
2023-03-22T07:48:22.432Z,13.80
2023-03-22T07:53:24.831Z,11.40
2023-03-22T07:58:27.100Z,13.80
2023-03-22T08:03:29.290Z,10.85
2023-03-22T08:08:32.323Z,16.42
2023-03-22T08:13:35.286Z,13.73
2023-03-22T08:18:38.449Z,13.60
2023-03-22T08:23:42.357Z,12.13
2023-03-22T08:28:44.945Z,15.15
2023-03-22T08:33:48.525Z,16.25
2023-03-22T08:38:50.863Z,18.20
2023-03-22T08:43:53.001Z,17.45
2023-03-22T08:48:55.315Z,9.25
2023-03-22T08:54:00.703Z,11.60
2023-03-22T08:59:03.053Z,9.20
2023-03-22T09:04:06.052Z,7.07
2023-03-22T09:09:08.475Z,6.07
2023-03-22T09:14:11.074Z,6.85
2023-03-22T09:19:13.316Z,11.98
2023-03-22T09:24:15.427Z,6.68
2023-03-22T09:29:17.798Z,7.30
2023-03-22T09:34:20.210Z,7.50
2023-03-22T09:39:22.892Z,9.18
2023-03-22T09:44:32.647Z,8.10
2023-03-22T09:49:53.061Z,7.97
2023-03-22T09:54:56.162Z,8.18
2023-03-22T10:00:19.067Z,8.77
2023-03-22T10:05:30.627Z,9.52
2023-03-22T10:10:32.956Z,9.18
2023-03-22T10:15:39.356Z,10.18
2023-03-22T10:21:07.264Z,9.00
2023-03-22T10:26:18.722Z,9.57
2023-03-22T10:31:22.401Z,7.63
2023-03-22T10:36:31.676Z,5.72
2023-03-22T10:41:35.245Z,8.15
2023-03-22T10:46:43.130Z,8.38
2023-03-22T10:51:52.114Z,6.32
2023-03-22T10:56:54.306Z,8.30
2023-03-22T11:01:56.680Z,10.95
2023-03-22T11:06:58.987Z,7.90
2023-03-22T11:12:02.004Z,9.73
2023-03-22T11:17:06.858Z,8.85
2023-03-22T11:22:26.737Z,5.18
2023-03-22T11:27:33.266Z,8.13
2023-03-22T11:32:40.148Z,6.90
2023-03-22T11:37:43.341Z,9.98
2023-03-22T11:42:46.816Z,10.43
2023-03-22T11:47:49.394Z,4.43
2023-03-22T11:52:52.847Z,5.60
2023-03-22T11:57:57.990Z,10.35
2023-03-22T12:03:20.772Z,6.78
2023-03-22T12:08:44.255Z,8.20
2023-03-22T12:14:00.107Z,7.63
2023-03-22T12:19:14.062Z,7.00
2023-03-22T12:24:28.642Z,7.60
2023-03-22T12:29:32.957Z,5.80
2023-03-22T12:34:44.030Z,7.75
2023-03-22T12:40:01.326Z,8.43
2023-03-22T12:45:12.134Z,5.45
2023-03-22T12:50:29.321Z,6.43
2023-03-22T12:55:36.119Z,3.72
2023-03-22T13:00:49.996Z,5.45
2023-03-22T13:06:02.505Z,3.28
2023-03-22T13:11:05.952Z,4.22
2023-03-22T13:16:11.429Z,5.38
2023-03-22T13:21:17.616Z,2.75
2023-03-22T13:26:20.922Z,4.40
2023-03-22T13:31:58.821Z,4.60
2023-03-22T13:37:03.913Z,6.18
2023-03-22T13:42:22.198Z,4.05
2023-03-22T13:48:29.402Z,4.68
2023-03-22T13:53:37.864Z,4.45
2023-03-22T13:58:48.707Z,6.40
2023-03-22T14:03:51.550Z,3.35
2023-03-22T14:09:02.896Z,3.88
2023-03-22T14:14:13.756Z,4.28
2023-03-22T14:19:23.695Z,5.05
